sensor_id;sensor_type;location;lat;lon;timestamp;P1;durP1;ratioP1;P2;durP2;ratioP2
65641;SDS011;52340;-6.720;108.544;2024-01-25T00:00:44;21.27;;;17.00;;
65641;SDS011;52340;-6.720;108.544;2024-01-25T00:01:46;25.08;;;16.80;;
65641;SDS011;52340;-6.720;108.544;2024-01-25T00:02:48;23.25;;;16.38;;
65641;SDS011;52340;-6.720;108.544;2024-01-25T00:03:50;21.13;;;16.42;;
65641;SDS011;52340;-6.720;108.544;2024-01-25T00:04:52;23.83;;;16.50;;
65641;SDS011;52340;-6.720;108.544;2024-01-25T00:05:53;24.02;;;16.10;;
65641;SDS011;52340;-6.720;108.544;2024-01-25T00:06:55;25.83;;;16.75;;
65641;SDS011;52340;-6.720;108.544;2024-01-25T00:07:57;23.17;;;15.30;;
65641;SDS011;52340;-6.720;108.544;2024-01-25T00:08:59;23.08;;;15.48;;
65641;SDS011;52340;-6.720;108.544;2024-01-25T00:10:01;20.98;;;14.23;;
65641;SDS011;52340;-6.720;108.544;2024-01-25T00:11:04;21.98;;;15.23;;
65641;SDS011;52340;-6.720;108.544;2024-01-25T00:12:06;23.20;;;15.18;;
65641;SDS011;52340;-6.720;108.544;2024-01-25T00:13:08;23.02;;;15.57;;
65641;SDS011;52340;-6.720;108.544;2024-01-25T00:14:10;19.48;;;14.85;;
65641;SDS011;52340;-6.720;108.544;2024-01-25T00:15:12;21.83;;;14.23;;
65641;SDS011;52340;-6.720;108.544;2024-01-25T00:16:14;22.33;;;14.05;;
65641;SDS011;52340;-6.720;108.544;2024-01-25T00:17:16;19.52;;;14.13;;
65641;SDS011;52340;-6.720;108.544;2024-01-25T00:18:18;20.27;;;14.02;;
65641;SDS011;52340;-6.720;108.544;2024-01-25T00:19:19;19.50;;;14.20;;
65641;SDS011;52340;-6.720;108.544;2024-01-25T00:20:21;18.88;;;12.88;;
65641;SDS011;52340;-6.720;108.544;2024-01-25T00:21:23;19.10;;;13.98;;
65641;SDS011;52340;-6.720;108.544;2024-01-25T00:22:28;17.15;;;13.30;;
65641;SDS011;52340;-6.720;108.544;2024-01-25T00:23:29;19.38;;;13.90;;
65641;SDS011;52340;-6.720;108.544;2024-01-25T00:24:33;17.88;;;12.95;;
65641;SDS011;52340;-6.720;108.544;2024-01-25T00:25:35;19.02;;;13.18;;
65641;SDS011;52340;-6.720;108.544;2024-01-25T00:26:39;20.60;;;13.70;;
65641;SDS011;52340;-6.720;108.544;2024-01-25T00:27:40;18.00;;;12.80;;
65641;SDS011;52340;-6.720;108.544;2024-01-25T00:28:42;18.88;;;13.35;;
65641;SDS011;52340;-6.720;108.544;2024-01-25T00:29:44;20.80;;;12.93;;
65641;SDS011;52340;-6.720;108.544;2024-01-25T00:30:46;22.48;;;13.68;;
65641;SDS011;52340;-6.720;108.544;2024-01-25T00:31:47;20.15;;;13.23;;
65641;SDS011;52340;-6.720;108.544;2024-01-25T00:32:49;17.83;;;13.15;;
65641;SDS011;52340;-6.720;108.544;2024-01-25T00:33:51;19.63;;;13.45;;
65641;SDS011;52340;-6.720;108.544;2024-01-25T00:34:53;20.27;;;13.52;;
65641;SDS011;52340;-6.720;108.544;2024-01-25T00:35:55;21.73;;;13.93;;
65641;SDS011;52340;-6.720;108.544;2024-01-25T00:36:58;21.23;;;13.05;;
65641;SDS011;52340;-6.720;108.544;2024-01-25T00:38:00;18.23;;;13.73;;
65641;SDS011;52340;-6.720;108.544;2024-01-25T00:39:02;17.38;;;12.73;;
65641;SDS011;52340;-6.720;108.544;2024-01-25T00:40:05;17.77;;;13.32;;
65641;SDS011;52340;-6.720;108.544;2024-01-25T00:41:08;18.95;;;14.18;;
65641;SDS011;52340;-6.720;108.544;2024-01-25T00:42:12;20.15;;;13.27;;
65641;SDS011;52340;-6.720;108.544;2024-01-25T00:43:14;19.55;;;13.70;;
65641;SDS011;52340;-6.720;108.544;2024-01-25T00:44:17;18.17;;;14.30;;
65641;SDS011;52340;-6.720;108.544;2024-01-25T00:45:19;18.35;;;14.07;;
65641;SDS011;52340;-6.720;108.544;2024-01-25T00:46:21;19.02;;;14.20;;
65641;SDS011;52340;-6.720;108.544;2024-01-25T00:47:24;18.80;;;13.88;;
65641;SDS011;52340;-6.720;108.544;2024-01-25T00:48:26;20.17;;;13.00;;
65641;SDS011;52340;-6.720;108.544;2024-01-25T00:49:29;22.90;;;14.18;;
65641;SDS011;52340;-6.720;108.544;2024-01-25T00:50:31;19.55;;;14.18;;
65641;SDS011;52340;-6.720;108.544;2024-01-25T00:51:34;20.90;;;13.60;;
65641;SDS011;52340;-6.720;108.544;2024-01-25T00:52:38;19.05;;;13.75;;
65641;SDS011;52340;-6.720;108.544;2024-01-25T00:53:40;18.35;;;13.93;;
65641;SDS011;52340;-6.720;108.544;2024-01-25T00:54:43;21.45;;;13.70;;
65641;SDS011;52340;-6.720;108.544;2024-01-25T00:55:45;20.17;;;14.00;;
65641;SDS011;52340;-6.720;108.544;2024-01-25T00:56:47;19.30;;;13.15;;
65641;SDS011;52340;-6.720;108.544;2024-01-25T00:57:52;16.25;;;12.98;;
65641;SDS011;52340;-6.720;108.544;2024-01-25T00:58:55;18.63;;;12.75;;
65641;SDS011;52340;-6.720;108.544;2024-01-25T00:59:57;16.95;;;12.50;;
65641;SDS011;52340;-6.720;108.544;2024-01-25T01:01:03;22.83;;;13.88;;
65641;SDS011;52340;-6.720;108.544;2024-01-25T01:02:05;18.92;;;12.25;;
65641;SDS011;52340;-6.720;108.544;2024-01-25T01:03:12;17.83;;;11.98;;
65641;SDS011;52340;-6.720;108.544;2024-01-25T01:04:15;19.10;;;12.73;;
65641;SDS011;52340;-6.720;108.544;2024-01-25T01:05:17;16.05;;;12.02;;
65641;SDS011;52340;-6.720;108.544;2024-01-25T01:06:20;18.35;;;12.88;;
65641;SDS011;52340;-6.720;108.544;2024-01-25T01:07:23;16.30;;;12.68;;
65641;SDS011;52340;-6.720;108.544;2024-01-25T01:08:26;17.52;;;12.55;;
65641;SDS011;52340;-6.720;108.544;2024-01-25T01:09:28;16.02;;;11.88;;
65641;SDS011;52340;-6.720;108.544;2024-01-25T01:10:30;16.63;;;12.02;;
65641;SDS011;52340;-6.720;108.544;2024-01-25T01:11:32;16.95;;;11.70;;
65641;SDS011;52340;-6.720;108.544;2024-01-25T01:12:34;17.38;;;11.85;;
65641;SDS011;52340;-6.720;108.544;2024-01-25T01:13:39;15.88;;;11.73;;
65641;SDS011;52340;-6.720;108.544;2024-01-25T01:14:41;17.90;;;12.05;;
65641;SDS011;52340;-6.720;108.544;2024-01-25T01:15:43;16.52;;;11.68;;
65641;SDS011;52340;-6.720;108.544;2024-01-25T01:16:44;15.63;;;11.15;;
65641;SDS011;52340;-6.720;108.544;2024-01-25T01:17:46;15.93;;;11.38;;
65641;SDS011;52340;-6.720;108.544;2024-01-25T01:18:48;16.08;;;12.27;;
65641;SDS011;52340;-6.720;108.544;2024-01-25T01:19:50;15.93;;;11.82;;
65641;SDS011;52340;-6.720;108.544;2024-01-25T01:20:51;14.70;;;10.68;;
65641;SDS011;52340;-6.720;108.544;2024-01-25T01:21:53;15.55;;;10.60;;
65641;SDS011;52340;-6.720;108.544;2024-01-25T01:22:55;18.25;;;11.43;;
65641;SDS011;52340;-6.720;108.544;2024-01-25T01:23:57;16.83;;;11.07;;
65641;SDS011;52340;-6.720;108.544;2024-01-25T01:24:58;16.27;;;10.65;;
65641;SDS011;52340;-6.720;108.544;2024-01-25T01:26:00;16.00;;;11.05;;
65641;SDS011;52340;-6.720;108.544;2024-01-25T01:27:02;17.60;;;11.23;;
65641;SDS011;52340;-6.720;108.544;2024-01-25T01:28:04;15.88;;;10.55;;
65641;SDS011;52340;-6.720;108.544;2024-01-25T01:29:08;15.90;;;10.20;;
65641;SDS011;52340;-6.720;108.544;2024-01-25T01:30:10;17.05;;;10.00;;
65641;SDS011;52340;-6.720;108.544;2024-01-25T01:31:12;15.43;;;10.73;;
65641;SDS011;52340;-6.720;108.544;2024-01-25T01:32:14;14.85;;;10.98;;
65641;SDS011;52340;-6.720;108.544;2024-01-25T01:33:16;14.93;;;10.73;;
65641;SDS011;52340;-6.720;108.544;2024-01-25T01:34:18;16.75;;;10.45;;
65641;SDS011;52340;-6.720;108.544;2024-01-25T01:35:20;16.20;;;10.75;;
65641;SDS011;52340;-6.720;108.544;2024-01-25T01:36:21;16.00;;;11.18;;
65641;SDS011;52340;-6.720;108.544;2024-01-25T01:37:23;17.42;;;10.75;;
65641;SDS011;52340;-6.720;108.544;2024-01-25T01:38:25;15.07;;;10.45;;
65641;SDS011;52340;-6.720;108.544;2024-01-25T01:39:26;16.95;;;10.48;;
65641;SDS011;52340;-6.720;108.544;2024-01-25T01:40:28;16.38;;;10.13;;
65641;SDS011;52340;-6.720;108.544;2024-01-25T01:41:30;17.27;;;10.07;;
65641;SDS011;52340;-6.720;108.544;2024-01-25T01:42:32;15.15;;;9.60;;
65641;SDS011;52340;-6.720;108.544;2024-01-25T01:43:34;15.57;;;9.63;;
65641;SDS011;52340;-6.720;108.544;2024-01-25T01:44:38;12.98;;;8.95;;
65641;SDS011;52340;-6.720;108.544;2024-01-25T01:45:40;13.27;;;9.07;;
65641;SDS011;52340;-6.720;108.544;2024-01-25T01:46:42;16.73;;;9.02;;
65641;SDS011;52340;-6.720;108.544;2024-01-25T01:47:43;16.20;;;9.45;;
65641;SDS011;52340;-6.720;108.544;2024-01-25T01:48:45;13.07;;;9.38;;
65641;SDS011;52340;-6.720;108.544;2024-01-25T01:49:47;13.02;;;8.98;;
65641;SDS011;52340;-6.720;108.544;2024-01-25T01:50:49;14.32;;;8.73;;
65641;SDS011;52340;-6.720;108.544;2024-01-25T01:51:51;16.63;;;9.82;;
65641;SDS011;52340;-6.720;108.544;2024-01-25T01:52:53;13.32;;;8.65;;
65641;SDS011;52340;-6.720;108.544;2024-01-25T01:53:55;14.40;;;9.35;;
65641;SDS011;52340;-6.720;108.544;2024-01-25T01:54:57;14.70;;;8.95;;
65641;SDS011;52340;-6.720;108.544;2024-01-25T01:55:59;13.68;;;8.95;;
65641;SDS011;52340;-6.720;108.544;2024-01-25T01:57:01;15.18;;;9.18;;
65641;SDS011;52340;-6.720;108.544;2024-01-25T01:58:03;13.95;;;9.27;;
65641;SDS011;52340;-6.720;108.544;2024-01-25T01:59:05;13.38;;;9.07;;
65641;SDS011;52340;-6.720;108.544;2024-01-25T02:00:12;16.58;;;9.43;;
65641;SDS011;52340;-6.720;108.544;2024-01-25T02:01:16;13.43;;;8.90;;
65641;SDS011;52340;-6.720;108.544;2024-01-25T02:02:18;13.13;;;8.43;;
65641;SDS011;52340;-6.720;108.544;2024-01-25T02:03:19;13.73;;;7.97;;
65641;SDS011;52340;-6.720;108.544;2024-01-25T02:04:23;14.05;;;8.88;;
65641;SDS011;52340;-6.720;108.544;2024-01-25T02:05:25;13.63;;;8.60;;
65641;SDS011;52340;-6.720;108.544;2024-01-25T02:06:27;15.13;;;9.13;;
65641;SDS011;52340;-6.720;108.544;2024-01-25T02:07:29;12.93;;;8.85;;
65641;SDS011;52340;-6.720;108.544;2024-01-25T02:08:31;14.07;;;8.50;;
65641;SDS011;52340;-6.720;108.544;2024-01-25T02:09:33;13.45;;;8.38;;
65641;SDS011;52340;-6.720;108.544;2024-01-25T02:10:36;13.20;;;8.30;;
65641;SDS011;52340;-6.720;108.544;2024-01-25T02:11:37;13.48;;;8.20;;
65641;SDS011;52340;-6.720;108.544;2024-01-25T02:12:39;12.85;;;8.35;;
65641;SDS011;52340;-6.720;108.544;2024-01-25T02:13:41;14.23;;;8.40;;
65641;SDS011;52340;-6.720;108.544;2024-01-25T02:14:43;11.02;;;8.20;;
65641;SDS011;52340;-6.720;108.544;2024-01-25T02:15:46;12.43;;;8.38;;
65641;SDS011;52340;-6.720;108.544;2024-01-25T02:16:48;11.77;;;8.13;;
65641;SDS011;52340;-6.720;108.544;2024-01-25T02:17:50;12.68;;;8.15;;
65641;SDS011;52340;-6.720;108.544;2024-01-25T02:18:51;14.60;;;8.90;;
65641;SDS011;52340;-6.720;108.544;2024-01-25T02:19:53;16.23;;;9.10;;
65641;SDS011;52340;-6.720;108.544;2024-01-25T02:20:55;15.20;;;10.70;;
65641;SDS011;52340;-6.720;108.544;2024-01-25T02:21:57;17.65;;;11.00;;
65641;SDS011;52340;-6.720;108.544;2024-01-25T02:23:00;15.13;;;10.65;;
65641;SDS011;52340;-6.720;108.544;2024-01-25T02:24:02;14.85;;;10.13;;
65641;SDS011;52340;-6.720;108.544;2024-01-25T02:25:04;18.08;;;11.98;;
65641;SDS011;52340;-6.720;108.544;2024-01-25T02:26:09;19.63;;;13.93;;
65641;SDS011;52340;-6.720;108.544;2024-01-25T02:27:11;18.70;;;13.57;;
65641;SDS011;52340;-6.720;108.544;2024-01-25T02:28:12;20.17;;;13.00;;
65641;SDS011;52340;-6.720;108.544;2024-01-25T02:29:14;21.40;;;14.95;;
65641;SDS011;52340;-6.720;108.544;2024-01-25T02:30:16;22.15;;;14.80;;
65641;SDS011;52340;-6.720;108.544;2024-01-25T02:31:18;21.58;;;16.25;;
65641;SDS011;52340;-6.720;108.544;2024-01-25T02:32:19;23.33;;;16.13;;
65641;SDS011;52340;-6.720;108.544;2024-01-25T02:33:21;23.10;;;17.10;;
65641;SDS011;52340;-6.720;108.544;2024-01-25T02:34:23;22.75;;;15.85;;
65641;SDS011;52340;-6.720;108.544;2024-01-25T02:35:25;22.83;;;16.85;;
65641;SDS011;52340;-6.720;108.544;2024-01-25T02:36:26;22.00;;;16.70;;
65641;SDS011;52340;-6.720;108.544;2024-01-25T02:37:28;23.20;;;17.17;;
65641;SDS011;52340;-6.720;108.544;2024-01-25T02:38:31;23.60;;;17.52;;
65641;SDS011;52340;-6.720;108.544;2024-01-25T02:39:33;22.90;;;16.30;;
65641;SDS011;52340;-6.720;108.544;2024-01-25T02:40:35;23.23;;;16.08;;
65641;SDS011;52340;-6.720;108.544;2024-01-25T02:41:37;27.48;;;17.08;;
65641;SDS011;52340;-6.720;108.544;2024-01-25T02:42:38;22.40;;;15.48;;
65641;SDS011;52340;-6.720;108.544;2024-01-25T02:43:40;21.25;;;15.18;;
65641;SDS011;52340;-6.720;108.544;2024-01-25T02:44:42;19.50;;;14.85;;
65641;SDS011;52340;-6.720;108.544;2024-01-25T02:45:44;20.10;;;14.95;;
65641;SDS011;52340;-6.720;108.544;2024-01-25T02:46:45;23.05;;;14.40;;
65641;SDS011;52340;-6.720;108.544;2024-01-25T02:47:47;20.52;;;13.73;;
65641;SDS011;52340;-6.720;108.544;2024-01-25T02:48:49;18.75;;;12.85;;
65641;SDS011;52340;-6.720;108.544;2024-01-25T02:49:50;21.15;;;13.73;;
65641;SDS011;52340;-6.720;108.544;2024-01-25T02:50:52;19.55;;;13.68;;
65641;SDS011;52340;-6.720;108.544;2024-01-25T02:51:54;20.20;;;14.38;;
65641;SDS011;52340;-6.720;108.544;2024-01-25T02:52:56;18.63;;;14.07;;
65641;SDS011;52340;-6.720;108.544;2024-01-25T02:54:00;19.92;;;13.55;;
65641;SDS011;52340;-6.720;108.544;2024-01-25T02:55:02;20.00;;;13.90;;
65641;SDS011;52340;-6.720;108.544;2024-01-25T02:56:04;20.08;;;14.32;;
65641;SDS011;52340;-6.720;108.544;2024-01-25T02:57:07;20.02;;;13.40;;
65641;SDS011;52340;-6.720;108.544;2024-01-25T02:58:09;20.08;;;13.98;;
65641;SDS011;52340;-6.720;108.544;2024-01-25T02:59:10;19.52;;;13.18;;
65641;SDS011;52340;-6.720;108.544;2024-01-25T03:00:15;21.90;;;14.38;;
65641;SDS011;52340;-6.720;108.544;2024-01-25T03:01:20;22.67;;;15.90;;
65641;SDS011;52340;-6.720;108.544;2024-01-25T03:02:21;21.50;;;15.68;;
65641;SDS011;52340;-6.720;108.544;2024-01-25T03:03:23;21.92;;;15.32;;
65641;SDS011;52340;-6.720;108.544;2024-01-25T03:04:25;21.70;;;14.50;;
65641;SDS011;52340;-6.720;108.544;2024-01-25T03:05:27;19.35;;;14.23;;
65641;SDS011;52340;-6.720;108.544;2024-01-25T03:06:29;19.60;;;14.20;;
65641;SDS011;52340;-6.720;108.544;2024-01-25T03:07:31;20.25;;;14.48;;
65641;SDS011;52340;-6.720;108.544;2024-01-25T03:08:33;20.75;;;15.48;;
65641;SDS011;52340;-6.720;108.544;2024-01-25T03:09:36;19.50;;;14.93;;
65641;SDS011;52340;-6.720;108.544;2024-01-25T03:10:38;21.33;;;15.25;;
65641;SDS011;52340;-6.720;108.544;2024-01-25T03:11:40;22.88;;;15.18;;
65641;SDS011;52340;-6.720;108.544;2024-01-25T03:12:42;20.10;;;15.10;;
65641;SDS011;52340;-6.720;108.544;2024-01-25T03:13:44;18.52;;;14.00;;
65641;SDS011;52340;-6.720;108.544;2024-01-25T03:14:46;20.48;;;15.13;;
65641;SDS011;52340;-6.720;108.544;2024-01-25T03:15:48;17.50;;;13.15;;
65641;SDS011;52340;-6.720;108.544;2024-01-25T03:16:52;18.05;;;13.27;;
65641;SDS011;52340;-6.720;108.544;2024-01-25T03:17:54;18.42;;;12.85;;
65641;SDS011;52340;-6.720;108.544;2024-01-25T03:18:55;19.63;;;13.27;;
65641;SDS011;52340;-6.720;108.544;2024-01-25T03:19:57;20.05;;;13.50;;
65641;SDS011;52340;-6.720;108.544;2024-01-25T03:20:59;18.83;;;14.20;;
65641;SDS011;52340;-6.720;108.544;2024-01-25T03:22:03;18.98;;;14.20;;
65641;SDS011;52340;-6.720;108.544;2024-01-25T03:23:05;18.65;;;13.57;;
65641;SDS011;52340;-6.720;108.544;2024-01-25T03:24:07;20.95;;;13.90;;
65641;SDS011;52340;-6.720;108.544;2024-01-25T03:25:10;19.75;;;14.57;;
65641;SDS011;52340;-6.720;108.544;2024-01-25T03:26:12;18.25;;;13.85;;
65641;SDS011;52340;-6.720;108.544;2024-01-25T03:27:14;20.27;;;14.50;;
65641;SDS011;52340;-6.720;108.544;2024-01-25T03:28:16;19.30;;;14.55;;
65641;SDS011;52340;-6.720;108.544;2024-01-25T03:29:18;19.80;;;13.90;;
65641;SDS011;52340;-6.720;108.544;2024-01-25T03:30:20;21.00;;;14.45;;
65641;SDS011;52340;-6.720;108.544;2024-01-25T03:31:21;19.73;;;14.18;;
65641;SDS011;52340;-6.720;108.544;2024-01-25T03:32:23;17.88;;;14.13;;
65641;SDS011;52340;-6.720;108.544;2024-01-25T03:33:25;18.60;;;14.73;;
65641;SDS011;52340;-6.720;108.544;2024-01-25T03:34:27;19.15;;;13.95;;
65641;SDS011;52340;-6.720;108.544;2024-01-25T03:35:28;18.63;;;13.65;;
65641;SDS011;52340;-6.720;108.544;2024-01-25T03:36:30;18.35;;;13.57;;
65641;SDS011;52340;-6.720;108.544;2024-01-25T03:37:32;20.08;;;13.98;;
65641;SDS011;52340;-6.720;108.544;2024-01-25T03:38:34;18.42;;;12.77;;
65641;SDS011;52340;-6.720;108.544;2024-01-25T03:39:35;17.13;;;13.70;;
65641;SDS011;52340;-6.720;108.544;2024-01-25T03:40:39;18.90;;;13.02;;
65641;SDS011;52340;-6.720;108.544;2024-01-25T03:41:40;15.82;;;12.93;;
65641;SDS011;52340;-6.720;108.544;2024-01-25T03:42:42;16.55;;;12.80;;
65641;SDS011;52340;-6.720;108.544;2024-01-25T03:43:44;18.02;;;13.02;;
65641;SDS011;52340;-6.720;108.544;2024-01-25T03:44:46;19.42;;;12.55;;
65641;SDS011;52340;-6.720;108.544;2024-01-25T03:45:47;17.58;;;12.77;;
65641;SDS011;52340;-6.720;108.544;2024-01-25T03:46:49;17.48;;;13.38;;
65641;SDS011;52340;-6.720;108.544;2024-01-25T03:47:51;17.63;;;13.52;;
65641;SDS011;52340;-6.720;108.544;2024-01-25T03:48:52;17.48;;;12.27;;
65641;SDS011;52340;-6.720;108.544;2024-01-25T03:49:54;18.20;;;12.88;;
65641;SDS011;52340;-6.720;108.544;2024-01-25T03:50:56;21.02;;;13.35;;
65641;SDS011;52340;-6.720;108.544;2024-01-25T03:51:57;16.50;;;13.13;;
65641;SDS011;52340;-6.720;108.544;2024-01-25T03:52:59;15.82;;;12.68;;
65641;SDS011;52340;-6.720;108.544;2024-01-25T03:54:01;17.80;;;12.68;;
65641;SDS011;52340;-6.720;108.544;2024-01-25T03:55:03;17.27;;;12.75;;
65641;SDS011;52340;-6.720;108.544;2024-01-25T03:56:12;19.05;;;13.18;;
65641;SDS011;52340;-6.720;108.544;2024-01-25T03:57:14;19.45;;;13.30;;
65641;SDS011;52340;-6.720;108.544;2024-01-25T03:58:16;18.05;;;12.75;;
65641;SDS011;52340;-6.720;108.544;2024-01-25T03:59:18;18.02;;;12.73;;
65641;SDS011;52340;-6.720;108.544;2024-01-25T04:00:19;15.55;;;11.90;;
65641;SDS011;52340;-6.720;108.544;2024-01-25T04:01:21;16.67;;;12.10;;
65641;SDS011;52340;-6.720;108.544;2024-01-25T04:02:23;16.02;;;12.30;;
65641;SDS011;52340;-6.720;108.544;2024-01-25T04:03:27;13.45;;;11.57;;
65641;SDS011;52340;-6.720;108.544;2024-01-25T04:04:29;21.98;;;13.77;;
65641;SDS011;52340;-6.720;108.544;2024-01-25T04:05:30;16.45;;;13.18;;
65641;SDS011;52340;-6.720;108.544;2024-01-25T04:06:32;17.40;;;11.98;;
65641;SDS011;52340;-6.720;108.544;2024-01-25T04:07:36;16.80;;;11.40;;
65641;SDS011;52340;-6.720;108.544;2024-01-25T04:08:38;15.23;;;10.90;;
65641;SDS011;52340;-6.720;108.544;2024-01-25T04:09:40;17.27;;;10.98;;
65641;SDS011;52340;-6.720;108.544;2024-01-25T04:10:42;15.88;;;10.63;;
65641;SDS011;52340;-6.720;108.544;2024-01-25T04:11:48;13.43;;;10.18;;
65641;SDS011;52340;-6.720;108.544;2024-01-25T04:12:50;14.07;;;10.10;;
65641;SDS011;52340;-6.720;108.544;2024-01-25T04:13:52;14.63;;;9.75;;
65641;SDS011;52340;-6.720;108.544;2024-01-25T04:14:53;13.85;;;10.75;;
65641;SDS011;52340;-6.720;108.544;2024-01-25T04:15:55;15.00;;;10.07;;
65641;SDS011;52340;-6.720;108.544;2024-01-25T04:16:57;14.70;;;10.02;;
65641;SDS011;52340;-6.720;108.544;2024-01-25T04:17:59;13.57;;;9.45;;
65641;SDS011;52340;-6.720;108.544;2024-01-25T04:19:01;13.88;;;9.45;;
65641;SDS011;52340;-6.720;108.544;2024-01-25T04:20:02;14.43;;;10.02;;
65641;SDS011;52340;-6.720;108.544;2024-01-25T04:21:05;15.40;;;10.32;;
65641;SDS011;52340;-6.720;108.544;2024-01-25T04:22:06;14.18;;;10.13;;
65641;SDS011;52340;-6.720;108.544;2024-01-25T04:23:08;15.50;;;9.70;;
65641;SDS011;52340;-6.720;108.544;2024-01-25T04:24:10;15.10;;;9.90;;
65641;SDS011;52340;-6.720;108.544;2024-01-25T04:25:12;14.88;;;9.95;;
65641;SDS011;52340;-6.720;108.544;2024-01-25T04:26:14;13.02;;;9.77;;
65641;SDS011;52340;-6.720;108.544;2024-01-25T04:27:17;15.75;;;10.10;;
65641;SDS011;52340;-6.720;108.544;2024-01-25T04:28:19;14.82;;;9.95;;
65641;SDS011;52340;-6.720;108.544;2024-01-25T04:29:21;15.05;;;10.05;;
65641;SDS011;52340;-6.720;108.544;2024-01-25T04:30:25;14.30;;;10.13;;
65641;SDS011;52340;-6.720;108.544;2024-01-25T04:31:27;13.63;;;9.55;;
65641;SDS011;52340;-6.720;108.544;2024-01-25T04:32:28;16.50;;;9.73;;
65641;SDS011;52340;-6.720;108.544;2024-01-25T04:33:30;16.98;;;10.70;;
65641;SDS011;52340;-6.720;108.544;2024-01-25T04:34:32;14.50;;;11.07;;
65641;SDS011;52340;-6.720;108.544;2024-01-25T04:35:34;13.32;;;9.98;;
65641;SDS011;52340;-6.720;108.544;2024-01-25T04:36:35;14.15;;;9.98;;
65641;SDS011;52340;-6.720;108.544;2024-01-25T04:37:37;15.55;;;10.75;;
65641;SDS011;52340;-6.720;108.544;2024-01-25T04:38:39;14.98;;;10.05;;
65641;SDS011;52340;-6.720;108.544;2024-01-25T04:39:43;17.08;;;9.90;;
65641;SDS011;52340;-6.720;108.544;2024-01-25T04:40:45;17.90;;;11.57;;
65641;SDS011;52340;-6.720;108.544;2024-01-25T04:41:47;16.75;;;10.30;;
65641;SDS011;52340;-6.720;108.544;2024-01-25T04:42:50;15.15;;;9.75;;
65641;SDS011;52340;-6.720;108.544;2024-01-25T04:43:52;16.70;;;10.18;;
65641;SDS011;52340;-6.720;108.544;2024-01-25T04:44:53;14.07;;;10.32;;
65641;SDS011;52340;-6.720;108.544;2024-01-25T04:45:55;16.02;;;10.55;;
65641;SDS011;52340;-6.720;108.544;2024-01-25T04:46:57;17.88;;;10.13;;
65641;SDS011;52340;-6.720;108.544;2024-01-25T04:47:59;17.38;;;9.60;;
65641;SDS011;52340;-6.720;108.544;2024-01-25T04:49:01;13.93;;;9.90;;
65641;SDS011;52340;-6.720;108.544;2024-01-25T04:50:02;12.38;;;9.30;;
65641;SDS011;52340;-6.720;108.544;2024-01-25T04:51:05;15.30;;;9.10;;
65641;SDS011;52340;-6.720;108.544;2024-01-25T04:52:06;14.68;;;9.32;;
65641;SDS011;52340;-6.720;108.544;2024-01-25T04:53:08;18.02;;;9.80;;
65641;SDS011;52340;-6.720;108.544;2024-01-25T04:54:10;14.55;;;8.82;;
65641;SDS011;52340;-6.720;108.544;2024-01-25T04:55:12;11.90;;;8.70;;
65641;SDS011;52340;-6.720;108.544;2024-01-25T04:56:14;16.13;;;10.02;;
65641;SDS011;52340;-6.720;108.544;2024-01-25T04:57:15;13.55;;;8.40;;
65641;SDS011;52340;-6.720;108.544;2024-01-25T04:58:19;15.20;;;9.05;;
65641;SDS011;52340;-6.720;108.544;2024-01-25T04:59:20;13.32;;;8.57;;
65641;SDS011;52340;-6.720;108.544;2024-01-25T05:00:22;14.20;;;9.43;;
65641;SDS011;52340;-6.720;108.544;2024-01-25T05:01:24;17.77;;;9.52;;
65641;SDS011;52340;-6.720;108.544;2024-01-25T05:02:26;15.32;;;9.93;;
65641;SDS011;52340;-6.720;108.544;2024-01-25T05:03:27;15.50;;;9.80;;
65641;SDS011;52340;-6.720;108.544;2024-01-25T05:04:29;13.63;;;8.60;;
65641;SDS011;52340;-6.720;108.544;2024-01-25T05:05:31;11.85;;;8.73;;
65641;SDS011;52340;-6.720;108.544;2024-01-25T05:06:32;13.38;;;8.52;;
65641;SDS011;52340;-6.720;108.544;2024-01-25T05:07:34;11.90;;;8.05;;
65641;SDS011;52340;-6.720;108.544;2024-01-25T05:08:36;13.02;;;8.57;;
65641;SDS011;52340;-6.720;108.544;2024-01-25T05:09:38;11.50;;;8.35;;
65641;SDS011;52340;-6.720;108.544;2024-01-25T05:10:40;12.68;;;8.63;;
65641;SDS011;52340;-6.720;108.544;2024-01-25T05:11:45;10.85;;;8.23;;
65641;SDS011;52340;-6.720;108.544;2024-01-25T05:12:47;14.55;;;8.18;;
65641;SDS011;52340;-6.720;108.544;2024-01-25T05:13:50;12.18;;;7.97;;
65641;SDS011;52340;-6.720;108.544;2024-01-25T05:14:52;12.32;;;8.13;;
65641;SDS011;52340;-6.720;108.544;2024-01-25T05:15:54;11.52;;;8.38;;
65641;SDS011;52340;-6.720;108.544;2024-01-25T05:16:56;14.93;;;8.57;;
65641;SDS011;52340;-6.720;108.544;2024-01-25T05:17:57;14.00;;;8.18;;
65641;SDS011;52340;-6.720;108.544;2024-01-25T05:18:59;12.23;;;8.40;;
65641;SDS011;52340;-6.720;108.544;2024-01-25T05:20:04;11.85;;;8.30;;
65641;SDS011;52340;-6.720;108.544;2024-01-25T05:21:09;11.20;;;7.53;;
65641;SDS011;52340;-6.720;108.544;2024-01-25T05:22:11;13.60;;;8.98;;
65641;SDS011;52340;-6.720;108.544;2024-01-25T05:23:13;12.18;;;8.15;;
65641;SDS011;52340;-6.720;108.544;2024-01-25T05:24:15;15.55;;;8.93;;
65641;SDS011;52340;-6.720;108.544;2024-01-25T05:25:17;13.90;;;8.57;;
65641;SDS011;52340;-6.720;108.544;2024-01-25T05:26:18;14.32;;;8.60;;
65641;SDS011;52340;-6.720;108.544;2024-01-25T05:27:20;13.50;;;8.48;;
65641;SDS011;52340;-6.720;108.544;2024-01-25T05:28:22;13.73;;;9.13;;
65641;SDS011;52340;-6.720;108.544;2024-01-25T05:29:25;12.10;;;9.00;;
65641;SDS011;52340;-6.720;108.544;2024-01-25T05:30:30;12.80;;;8.95;;
65641;SDS011;52340;-6.720;108.544;2024-01-25T05:31:32;12.65;;;9.05;;
65641;SDS011;52340;-6.720;108.544;2024-01-25T05:32:34;12.25;;;8.98;;
65641;SDS011;52340;-6.720;108.544;2024-01-25T05:33:36;13.77;;;8.90;;
65641;SDS011;52340;-6.720;108.544;2024-01-25T05:34:37;11.32;;;8.90;;
65641;SDS011;52340;-6.720;108.544;2024-01-25T05:35:39;12.25;;;8.48;;
65641;SDS011;52340;-6.720;108.544;2024-01-25T05:36:41;12.85;;;9.02;;
65641;SDS011;52340;-6.720;108.544;2024-01-25T05:37:43;12.40;;;8.95;;
65641;SDS011;52340;-6.720;108.544;2024-01-25T05:38:44;11.00;;;8.85;;
65641;SDS011;52340;-6.720;108.544;2024-01-25T05:39:46;13.65;;;9.10;;
65641;SDS011;52340;-6.720;108.544;2024-01-25T05:40:48;12.38;;;9.10;;
65641;SDS011;52340;-6.720;108.544;2024-01-25T05:41:50;13.48;;;8.77;;
65641;SDS011;52340;-6.720;108.544;2024-01-25T05:42:52;12.23;;;9.20;;
65641;SDS011;52340;-6.720;108.544;2024-01-25T05:43:53;12.57;;;8.50;;
65641;SDS011;52340;-6.720;108.544;2024-01-25T05:45:00;11.88;;;8.70;;
65641;SDS011;52340;-6.720;108.544;2024-01-25T05:46:02;12.93;;;8.82;;
65641;SDS011;52340;-6.720;108.544;2024-01-25T05:47:03;12.23;;;9.50;;
65641;SDS011;52340;-6.720;108.544;2024-01-25T05:48:05;14.57;;;9.23;;
65641;SDS011;52340;-6.720;108.544;2024-01-25T05:49:07;12.18;;;9.10;;
65641;SDS011;52340;-6.720;108.544;2024-01-25T05:50:09;13.00;;;9.02;;
65641;SDS011;52340;-6.720;108.544;2024-01-25T05:51:11;11.82;;;8.68;;
65641;SDS011;52340;-6.720;108.544;2024-01-25T05:52:13;13.63;;;8.82;;
65641;SDS011;52340;-6.720;108.544;2024-01-25T05:53:15;11.98;;;8.88;;
65641;SDS011;52340;-6.720;108.544;2024-01-25T05:54:17;12.30;;;8.50;;
65641;SDS011;52340;-6.720;108.544;2024-01-25T05:55:18;13.95;;;9.18;;